Time;durP1;ratioP1;P1;durP2;ratioP2;P2;SDS_P1;SDS_P2;PMS_P1;PMS_P2;Temp;Humidity;BMP_temperature;BMP_pressure;BME280_temperature;BME280_humidity;BME280_pressure;Samples;Min_cycle;Max_cycle;Signal;HPM_P1;HPM_P2
2022/06/15 00:00:42;;;;;;;;;;;;;;;13.44;100.00;99323.41;5173162;27;19927;-50
2022/06/15 00:03:09;;;;;;;;;;;;;;;13.37;100.00;99324.94;5173462;27;19926;-50
2022/06/15 00:05:35;;;;;;;;;;;;;;;13.20;100.00;99331.03;5172940;27;19970;-49
2022/06/15 00:08:01;;;;;;;;;;;;;;;13.48;100.00;99322.25;5173404;27;19927;-49
2022/06/15 00:10:27;;;;;;;;;;;;;;;13.62;100.00;99336.16;5172961;27;19927;-49
2022/06/15 00:12:53;;;;;;;;;;;;;;;13.46;100.00;99330.09;5173220;27;19933;-48
2022/06/15 00:15:19;;;;;;;;;;;;;;;13.51;100.00;99331.75;5172946;27;20278;-50
2022/06/15 00:17:45;;;;;;;;;;;;;;;13.45;100.00;99334.03;5173029;27;20024;-49
2022/06/15 00:20:12;;;;;;;;;;;;;;;13.48;100.00;99329.75;5172792;27;19927;-50
2022/06/15 00:22:38;;;;;;;;;;;;;;;13.49;100.00;99339.56;5172931;27;19926;-49
2022/06/15 00:25:04;;;;;;;;;;;;;;;13.54;100.00;99340.03;5172738;27;19933;-53
2022/06/15 00:27:30;;;;;;;;;;;;;;;13.16;100.00;99339.25;5172881;27;19978;-49
2022/06/15 00:29:56;;;;;;;;;;;;;;;13.34;100.00;99344.97;5172964;27;20369;-50
2022/06/15 00:32:22;;;;;;;;;;;;;;;13.40;100.00;99332.44;5172667;27;19927;-49
2022/06/15 00:34:48;;;;;;;;;;;;;;;13.36;100.00;99342.63;5173157;27;19930;-52
2022/06/15 00:37:15;;;;;;;;;;;;;;;13.32;100.00;99336.28;5172891;27;20152;-48
2022/06/15 00:39:40;;;;;;;;;;;;;;;13.34;100.00;99328.44;5173149;27;19933;-51
2022/06/15 00:42:07;;;;;;;;;;;;;;;13.33;100.00;99337.09;5172781;27;19926;-49
2022/06/15 00:44:34;;;;;;;;;;;;;;;13.38;100.00;99342.25;5172831;27;20023;-52
2022/06/15 00:47:01;;;;;;;;;;;;;;;13.38;100.00;99343.03;5172462;27;19926;-53
2022/06/15 00:49:29;;;;;;;;;;;;;;;13.33;100.00;99337.09;5172586;27;19985;-51
2022/06/15 00:51:57;;;;;;;;;;;;;;;13.31;100.00;99334.69;5172464;27;19930;-49
2022/06/15 00:54:24;;;;;;;;;;;;;;;13.49;100.00;99334.84;5173081;27;19953;-49
2022/06/15 00:56:51;;;;;;;;;;;;;;;13.42;100.00;99346.59;5176469;27;19997;-51
2022/06/15 00:59:23;;;;;;;;;;;;;;;13.35;100.00;99337.50;5176494;27;20347;-51
2022/06/15 01:01:48;;;;;;;;;;;;;;;13.09;100.00;99336.41;5176316;27;20385;-52
2022/06/15 01:04:15;;;;;;;;;;;;;;;13.15;100.00;99339.63;5175842;27;19979;-54
2022/06/15 01:06:48;;;;;;;;;;;;;;;13.31;100.00;99337.47;5176307;27;19926;-49
2022/06/15 01:09:19;;;;;;;;;;;;;;;13.19;100.00;99335.75;5175962;27;20286;-49
2022/06/15 01:11:55;;;;;;;;;;;;;;;13.39;100.00;99344.63;5175886;27;19933;-51
2022/06/15 01:14:51;;;;;;;;;;;;;;;13.45;100.00;99338.75;5176153;27;20452;-49
2022/06/15 01:17:27;;;;;;;;;;;;;;;13.36;100.00;99339.88;5091035;28;19949;-49
2022/06/15 01:20:03;;;;;;;;;;;;;;;13.28;100.00;99312.66;5161486;27;20304;-49
2022/06/15 01:22:41;;;;;;;;;;;;;;;12.93;100.00;99319.38;5175664;27;20029;-49
2022/06/15 01:25:23;;;;;;;;;;;;;;;12.97;100.00;99303.66;5176143;27;19926;-49
2022/06/15 01:28:01;;;;;;;;;;;;;;;13.09;100.00;99308.88;5175645;27;20385;-48
2022/06/15 01:30:32;;;;;;;;;;;;;;;12.95;100.00;99295.78;5175684;27;19927;-49
2022/06/15 01:33:04;;;;;;;;;;;;;;;13.09;100.00;99310.84;5175667;27;20381;-49
2022/06/15 01:35:33;;;;;;;;;;;;;;;13.19;100.00;99318.41;5175503;27;20481;-51
2022/06/15 01:38:02;;;;;;;;;;;;;;;13.21;100.00;99296.03;5175630;27;20344;-50
2022/06/15 01:40:34;;;;;;;;;;;;;;;13.19;100.00;99313.72;5175496;27;19987;-51
2022/06/15 01:43:01;;;;;;;;;;;;;;;13.08;100.00;99301.03;5175676;27;20393;-49
2022/06/15 01:45:31;;;;;;;;;;;;;;;13.21;100.00;99304.28;5175346;27;19927;-48
2022/06/15 01:47:58;;;;;;;;;;;;;;;13.35;100.00;99315.47;5175486;27;20049;-49
2022/06/15 01:50:25;;;;;;;;;;;;;;;13.33;100.00;99326.09;5175349;27;19931;-51
2022/06/15 01:52:54;;;;;;;;;;;;;;;13.31;100.00;99318.19;5175613;27;20386;-49
2022/06/15 01:55:23;;;;;;;;;;;;;;;13.25;100.00;99322.44;5175574;27;20021;-50
2022/06/15 01:57:51;;;;;;;;;;;;;;;13.31;100.00;99333.91;5175110;27;19927;-49
2022/06/15 02:00:17;;;;;;;;;;;;;;;13.30;100.00;99316.63;5175453;27;19927;-49
2022/06/15 02:02:49;;;;;;;;;;;;;;;13.20;100.00;99336.53;5174970;27;20393;-49
2022/06/15 02:05:18;;;;;;;;;;;;;;;13.17;100.00;99318.81;5175359;27;20025;-50
2022/06/15 02:07:49;;;;;;;;;;;;;;;13.30;100.00;99316.63;5174049;27;19931;-52
2022/06/15 02:10:19;;;;;;;;;;;;;;;13.22;100.00;99330.66;5175223;27;19956;-49
2022/06/15 02:12:55;;;;;;;;;;;;;;;13.19;100.00;99337.69;5175063;27;19937;-48
2022/06/15 02:15:25;;;;;;;;;;;;;;;13.22;100.00;99342.44;5174816;27;20385;-51
2022/06/15 02:17:52;;;;;;;;;;;;;;;13.28;100.00;99337.44;5175188;27;19927;-49
2022/06/15 02:20:20;;;;;;;;;;;;;;;13.16;100.00;99339.25;5174788;27;19927;-49
2022/06/15 02:22:48;;;;;;;;;;;;;;;13.22;100.00;99345.19;5175109;27;19933;-50
2022/06/15 02:25:16;;;;;;;;;;;;;;;13.04;100.00;99347.78;5174618;27;19931;-49
2022/06/15 02:27:43;;;;;;;;;;;;;;;13.05;100.00;99340.31;5174976;27;20402;-49
2022/06/15 02:30:11;;;;;;;;;;;;;;;13.09;100.00;99341.91;5174621;27;19973;-52
2022/06/15 02:32:37;;;;;;;;;;;;;;;13.03;100.00;99340.69;5174899;27;19927;-50
2022/06/15 02:35:05;;;;;;;;;;;;;;;13.07;100.00;99349.78;5174631;27;19926;-48
2022/06/15 02:37:31;;;;;;;;;;;;;;;13.00;100.00;99352.47;5174462;27;20041;-49
2022/06/15 02:39:57;;;;;;;;;;;;;;;12.81;100.00;99341.63;5174517;27;19985;-49
2022/06/15 02:42:25;;;;;;;;;;;;;;;12.76;100.00;99345.47;5174457;27;20290;-52
2022/06/15 02:44:53;;;;;;;;;;;;;;;12.68;100.00;99338.31;5174336;27;19927;-49
2022/06/15 02:47:20;;;;;;;;;;;;;;;12.81;100.00;99333.38;5174499;27;20300;-49
2022/06/15 02:49:51;;;;;;;;;;;;;;;12.64;100.00;99334.75;5174645;27;19927;-49
2022/06/15 02:52:19;;;;;;;;;;;;;;;12.92;100.00;99328.75;5174246;27;19976;-52
2022/06/15 02:54:47;;;;;;;;;;;;;;;12.97;100.00;99342.19;5174694;27;20393;-50
2022/06/15 02:57:13;;;;;;;;;;;;;;;12.97;100.00;99344.16;5174259;27;19966;-50
2022/06/15 02:59:39;;;;;;;;;;;;;;;13.35;100.00;99354.00;5174401;27;19927;-50
2022/06/15 03:02:05;;;;;;;;;;;;;;;13.33;100.00;99365.41;5174148;27;19926;-51
2022/06/15 03:04:31;;;;;;;;;;;;;;;14.40;100.00;99372.94;5174102;27;19934;-51
2022/06/15 03:06:57;;;;;;;;;;;;;;;14.90;100.00;99351.13;5174084;27;19931;-50
2022/06/15 03:09:24;;;;;;;;;;;;;;;15.33;100.00;99260.06;5173853;27;19926;-51
2022/06/15 03:11:50;;;;;;;;;;;;;;;15.11;100.00;99193.78;5174230;27;19926;-49
2022/06/15 03:14:17;;;;;;;;;;;;;;;14.99;100.00;99205.22;5173794;27;19927;-52
2022/06/15 03:16:43;;;;;;;;;;;;;;;14.85;100.00;99203.22;5174287;27;19940;-53
2022/06/15 03:19:09;;;;;;;;;;;;;;;14.56;100.00;99229.97;5173924;27;20342;-50
2022/06/15 03:21:35;;;;;;;;;;;;;;;14.46;100.00;99253.56;5174212;27;19934;-53
2022/06/15 03:24:01;;;;;;;;;;;;;;;14.58;100.00;99256.00;5174149;27;20292;-49
2022/06/15 03:26:28;;;;;;;;;;;;;;;14.58;100.00;99269.00;5173824;27;19926;-49
2022/06/15 03:28:54;;;;;;;;;;;;;;;14.57;100.00;99268.22;5173807;27;20318;-52
2022/06/15 03:31:20;;;;;;;;;;;;;;;14.64;100.00;99261.16;5173891;27;19933;-52
2022/06/15 03:33:46;;;;;;;;;;;;;;;14.49;100.00;99288.63;5173673;27;20309;-49
2022/06/15 03:36:11;;;;;;;;;;;;;;;14.47;100.00;99302.03;5173628;27;20335;-50
2022/06/15 03:38:37;;;;;;;;;;;;;;;14.56;100.00;99290.66;5173526;27;19949;-50
2022/06/15 03:41:03;;;;;;;;;;;;;;;14.57;100.00;99290.28;5173592;27;20392;-51
2022/06/15 03:43:30;;;;;;;;;;;;;;;14.33;100.00;99271.66;5173552;27;20381;-51
2022/06/15 03:45:56;;;;;;;;;;;;;;;14.61;100.00;99306.84;5173416;27;19927;-49
2022/06/15 03:48:22;;;;;;;;;;;;;;;14.52;100.00;99303.66;5173772;27;20043;-52
2022/06/15 03:50:48;;;;;;;;;;;;;;;14.61;100.00;99273.75;5173487;27;19955;-52
2022/06/15 03:53:14;;;;;;;;;;;;;;;14.54;100.00;99282.78;5173836;27;19930;-49
2022/06/15 03:55:41;;;;;;;;;;;;;;;14.65;100.00;99280.06;5173505;27;20466;-49
2022/06/15 03:58:07;;;;;;;;;;;;;;;14.72;100.00;99282.06;5173375;27;19926;-49
2022/06/15 04:00:34;;;;;;;;;;;;;;;14.32;100.00;99300.38;5173269;27;19927;-51
2022/06/15 04:03:00;;;;;;;;;;;;;;;15.08;100.00;99274.63;5173112;27;20312;-48
2022/06/15 04:05:28;;;;;;;;;;;;;;;14.83;100.00;99260.81;5173042;27;20068;-50
2022/06/15 04:10:38;;;;;;;;;;;;;;;14.97;100.00;99157.91;5173194;27;19934;-50
2022/06/15 04:13:04;;;;;;;;;;;;;;;14.90;100.00;99177.22;5172969;27;19926;-52
2022/06/15 04:15:30;;;;;;;;;;;;;;;15.05;100.00;99196.13;5173280;27;19926;-50
2022/06/15 04:17:57;;;;;;;;;;;;;;;14.77;100.00;99180.38;5172856;27;20018;-52
2022/06/15 04:20:33;;;;;;;;;;;;;;;14.64;100.00;99173.63;5173225;27;20349;-51
2022/06/15 04:22:59;;;;;;;;;;;;;;;14.54;100.00;99207.50;5173145;27;19926;-50
2022/06/15 04:25:25;;;;;;;;;;;;;;;14.70;100.00;99207.16;5172981;27;19930;-49
2022/06/15 04:27:51;;;;;;;;;;;;;;;14.70;100.00;99232.00;5173015;27;20021;-50
2022/06/15 04:30:17;;;;;;;;;;;;;;;14.81;100.00;99243.84;5172079;27;19926;-49
2022/06/15 04:32:43;;;;;;;;;;;;;;;14.24;100.00;99219.59;5172611;27;20289;-49
2022/06/15 04:35:10;;;;;;;;;;;;;;;14.59;100.00;99260.34;5172480;27;20353;-51
2022/06/15 04:37:37;;;;;;;;;;;;;;;14.33;100.00;99300.00;5172593;27;19933;-49
2022/06/15 04:40:04;;;;;;;;;;;;;;;14.66;100.00;99286.34;5172523;27;20025;-49
2022/06/15 04:42:30;;;;;;;;;;;;;;;14.63;100.00;99248.50;5172553;27;19985;-51
2022/06/15 04:44:56;;;;;;;;;;;;;;;14.61;100.00;99240.63;5172382;27;20373;-51
2022/06/15 04:47:22;;;;;;;;;;;;;;;14.61;100.00;99287.53;5172600;27;19926;-49
2022/06/15 04:49:48;;;;;;;;;;;;;;;14.84;100.00;99262.38;5172425;27;19979;-49
2022/06/15 04:52:14;;;;;;;;;;;;;;;14.83;100.00;99242.28;5172602;27;19931;-49
2022/06/15 04:54:40;;;;;;;;;;;;;;;14.67;100.00;99265.88;5172312;27;19971;-49
2022/06/15 04:57:06;;;;;;;;;;;;;;;14.73;100.00;99261.56;5172293;27;19931;-50
2022/06/15 04:59:32;;;;;;;;;;;;;;;15.06;100.00;99244.66;5172239;27;19933;-49
2022/06/15 05:01:58;;;;;;;;;;;;;;;15.18;100.00;99207.59;5172148;27;19964;-49
2022/06/15 05:04:25;;;;;;;;;;;;;;;15.02;100.00;99202.44;5172117;27;19930;-51
2022/06/15 05:06:51;;;;;;;;;;;;;;;15.00;100.00;99209.56;5172208;27;20301;-52
2022/06/15 05:09:18;;;;;;;;;;;;;;;15.12;100.00;99195.34;5172225;27;19926;-51
2022/06/15 05:11:44;;;;;;;;;;;;;;;15.27;100.00;99168.53;5172181;27;20472;-49
2022/06/15 05:14:10;;;;;;;;;;;;;;;15.33;100.00;99135.75;5172379;27;20031;-50
2022/06/15 05:16:37;;;;;;;;;;;;;;;15.39;100.00;99173.63;5172136;27;19926;-49
2022/06/15 05:19:03;;;;;;;;;;;;;;;15.34;100.00;99135.38;5172151;27;20411;-50
2022/06/15 05:21:28;;;;;;;;;;;;;;;15.41;100.00;99095.91;5171979;27;19927;-51
2022/06/15 05:23:55;;;;;;;;;;;;;;;15.27;100.00;99127.88;5172223;27;19931;-51
2022/06/15 05:26:24;;;;;;;;;;;;;;;15.44;100.00;99151.13;5172122;27;20465;-48
2022/06/15 05:28:50;;;;;;;;;;;;;;;15.24;100.00;99167.34;5171798;27;19979;-50
2022/06/15 05:31:18;;;;;;;;;;;;;;;15.49;100.00;99194.94;5171838;27;19927;-51
2022/06/15 05:33:44;;;;;;;;;;;;;;;15.56;100.00;99174.81;5171996;27;19933;-52
2022/06/15 05:36:11;;;;;;;;;;;;;;;15.48;100.00;99195.34;5172048;27;19934;-52
2022/06/15 05:38:37;;;;;;;;;;;;;;;15.50;100.00;99144.03;5171769;27;19927;-49
2022/06/15 05:41:03;;;;;;;;;;;;;;;15.46;100.00;99107.34;5172146;27;20293;-49
2022/06/15 05:43:31;;;;;;;;;;;;;;;15.98;100.00;99106.75;5174859;27;19973;-49
2022/06/15 05:45:57;;;;;;;;;;;;;;;16.32;100.00;98976.94;5175706;27;20464;-49
2022/06/15 05:48:23;;;;;;;;;;;;;;;16.43;100.00;98947.22;5175560;27;19927;-49
2022/06/15 05:50:49;;;;;;;;;;;;;;;16.69;100.00;98850.88;5175484;27;19926;-51
2022/06/15 05:53:15;;;;;;;;;;;;;;;16.91;100.00;98650.09;5175289;27;19931;-54
2022/06/15 05:55:41;;;;;;;;;;;;;;;16.83;100.00;98701.25;5175065;27;19933;-50
2022/06/15 05:58:07;;;;;;;;;;;;;;;17.12;100.00;98684.19;5174905;27;19926;-50
2022/06/15 06:00:34;;;;;;;;;;;;;;;17.18;100.00;98583.56;5175005;27;19934;-49
2022/06/15 06:03:00;;;;;;;;;;;;;;;17.20;100.00;98533.28;5175035;27;20306;-49
2022/06/15 06:05:26;;;;;;;;;;;;;;;17.09;100.00;98505.00;5175058;27;19933;-53
2022/06/15 06:07:54;;;;;;;;;;;;;;;16.60;100.00;98618.13;5174771;27;19927;-52
2022/06/15 06:10:19;;;;;;;;;;;;;;;16.77;100.00;98619.88;5174878;27;20438;-51
2022/06/15 06:12:45;;;;;;;;;;;;;;;16.99;100.00;98553.84;5174927;27;19927;-52
2022/06/15 06:15:11;;;;;;;;;;;;;;;17.16;100.00;98622.00;5174739;27;19959;-54
2022/06/15 06:17:38;;;;;;;;;;;;;;;17.08;100.00;98597.59;5174783;27;19934;-53
2022/06/15 06:20:04;;;;;;;;;;;;;;;16.87;100.00;98580.16;5174653;27;20021;-53
2022/06/15 06:22:30;;;;;;;;;;;;;;;16.93;100.00;98625.53;5174510;27;20313;-52
2022/06/15 06:24:56;;;;;;;;;;;;;;;17.13;100.00;98597.13;5174651;27;19927;-51
2022/06/15 06:27:22;;;;;;;;;;;;;;;17.18;100.00;98516.31;5174388;27;19927;-52
2022/06/15 06:29:48;;;;;;;;;;;;;;;17.27;100.00;98641.19;5174408;27;19927;-51
2022/06/15 06:32:15;;;;;;;;;;;;;;;17.50;100.00;98512.91;5174585;27;19934;-53
2022/06/15 06:34:41;;;;;;;;;;;;;;;17.47;100.00;98497.13;5174627;27;20025;-53
2022/06/15 06:37:09;;;;;;;;;;;;;;;17.46;100.00;98465.09;5174718;27;20021;-54
2022/06/15 06:39:35;;;;;;;;;;;;;;;17.59;100.00;98567.75;5174569;27;19926;-55
2022/06/15 06:42:02;;;;;;;;;;;;;;;17.57;100.00;98564.63;5174310;27;20401;-50
2022/06/15 06:44:28;;;;;;;;;;;;;;;17.70;100.00;98460.22;5174429;27;20070;-53
2022/06/15 06:46:54;;;;;;;;;;;;;;;17.82;100.00;98429.06;5174377;27;19970;-51
2022/06/15 06:49:21;;;;;;;;;;;;;;;18.11;100.00;98353.50;5174279;27;19926;-51
2022/06/15 06:51:48;;;;;;;;;;;;;;;18.37;100.00;98367.53;5174033;27;19937;-54
2022/06/15 06:54:15;;;;;;;;;;;;;;;18.69;100.00;98394.41;5173732;27;19927;-52
2022/06/15 06:56:41;;;;;;;;;;;;;;;18.18;100.00;98222.94;5173965;27;19927;-54
2022/06/15 06:59:08;;;;;;;;;;;;;;;18.35;100.00;98274.38;5174044;27;19934;-53
2022/06/15 07:01:34;;;;;;;;;;;;;;;18.28;100.00;98269.03;5174371;27;20314;-54
2022/06/15 07:04:00;;;;;;;;;;;;;;;18.11;100.00;98170.44;5174229;27;19990;-53
2022/06/15 07:06:26;;;;;;;;;;;;;;;18.57;100.00;98093.38;5174262;27;19930;-54
2022/06/15 07:08:53;;;;;;;;;;;;;;;18.35;100.00;98101.56;5173949;27;19933;-54
2022/06/15 07:11:19;;;;;;;;;;;;;;;18.42;100.00;98151.31;5173922;27;20021;-53
2022/06/15 07:13:45;;;;;;;;;;;;;;;18.07;100.00;98167.00;5173740;27;20500;-53
2022/06/15 07:16:12;;;;;;;;;;;;;;;18.26;100.00;98143.06;5173907;27;19926;-54
2022/06/15 07:18:38;;;;;;;;;;;;;;;18.48;100.00;98132.88;5173575;27;19933;-54
2022/06/15 07:21:05;;;;;;;;;;;;;;;17.83;100.00;98108.28;5173666;27;19931;-49
2022/06/15 07:23:31;;;;;;;;;;;;;;;18.22;100.00;98126.53;5173478;27;19927;-52
2022/06/15 07:26:02;;;;;;;;;;;;;;;18.15;100.00;98084.38;5173555;27;19931;-51
2022/06/15 07:28:28;;;;;;;;;;;;;;;18.35;100.00;98071.81;5173372;27;19926;-53
2022/06/15 07:30:54;;;;;;;;;;;;;;;18.56;100.00;98089.06;5173516;27;19965;-54
2022/06/15 07:33:20;;;;;;;;;;;;;;;18.26;100.00;98104.22;5173568;27;19933;-53
2022/06/15 07:35:47;;;;;;;;;;;;;;;18.98;100.00;98105.56;5173363;27;19973;-53
2022/06/15 07:38:12;;;;;;;;;;;;;;;19.14;100.00;98052.66;5173556;27;19926;-51
2022/06/15 07:40:38;;;;;;;;;;;;;;;19.18;100.00;98031.06;5173243;27;19934;-53
2022/06/15 07:43:05;;;;;;;;;;;;;;;18.72;100.00;98052.84;5173456;27;19988;-54
2022/06/15 07:45:31;;;;;;;;;;;;;;;18.81;100.00;98043.84;5173317;27;20308;-53
2022/06/15 07:50:42;;;;;;;;;;;;;;;18.49;100.00;98120.59;5173322;27;19934;-54
2022/06/15 07:53:11;;;;;;;;;;;;;;;18.60;100.00;98155.56;5173321;27;19930;-53
2022/06/15 07:55:38;;;;;;;;;;;;;;;19.85;100.00;98081.94;5173409;27;19930;-53
2022/06/15 07:58:04;;;;;;;;;;;;;;;21.34;100.00;98013.09;5173158;27;19926;-53
2022/06/15 08:00:32;;;;;;;;;;;;;;;21.88;100.00;98027.44;5173325;27;20357;-54
2022/06/15 08:02:58;;;;;;;;;;;;;;;22.97;100.00;98084.91;5173067;27;19933;-54
2022/06/15 08:05:24;;;;;;;;;;;;;;;23.80;100.00;98192.66;5172206;27;20283;-55
2022/06/15 08:07:50;;;;;;;;;;;;;;;23.32;100.00;98232.56;5173074;27;20415;-54
2022/06/15 08:10:19;;;;;;;;;;;;;;;22.50;100.00;98175.72;5173044;27;19927;-55
2022/06/15 08:12:45;;;;;;;;;;;;;;;21.92;100.00;98132.06;5173178;27;19934;-56
2022/06/15 08:15:11;;;;;;;;;;;;;;;20.97;100.00;98077.19;5173328;27;19926;-54
2022/06/15 08:17:40;;;;;;;;;;;;;;;20.51;100.00;98065.91;5172687;27;19927;-54
2022/06/15 08:20:09;;;;;;;;;;;;;;;20.75;100.00;98051.44;5172692;27;19926;-54
2022/06/15 08:22:36;;;;;;;;;;;;;;;21.75;100.00;98063.91;5172821;27;19931;-56
2022/06/15 08:25:04;;;;;;;;;;;;;;;22.04;100.00;98103.22;5172103;27;20332;-55
2022/06/15 08:27:30;;;;;;;;;;;;;;;21.68;100.00;98092.88;5172585;27;19927;-55
2022/06/15 08:29:57;;;;;;;;;;;;;;;23.07;100.00;98180.66;5172666;27;19926;-56
2022/06/15 08:32:23;;;;;;;;;;;;;;;22.83;100.00;98261.63;5172826;27;19927;-54
2022/06/15 08:34:49;;;;;;;;;;;;;;;21.65;100.00;98218.53;5172255;27;19927;-55
2022/06/15 08:37:16;;;;;;;;;;;;;;;21.53;100.00;98195.16;5172692;27;19938;-54
2022/06/15 08:39:42;;;;;;;;;;;;;;;21.80;100.00;98175.63;5172519;27;20285;-55
2022/06/15 08:42:12;;;;;;;;;;;;;;;22.45;100.00;98178.38;5172454;27;19934;-55
2022/06/15 08:44:48;;;;;;;;;;;;;;;22.06;100.00;98204.00;5172463;27;19927;-56
2022/06/15 08:47:19;;;;;;;;;;;;;;;22.98;100.00;98189.09;5172559;27;19926;-52
2022/06/15 08:49:49;;;;;;;;;;;;;;;23.18;100.00;98191.31;5172323;27;19935;-56
2022/06/15 08:52:17;;;;;;;;;;;;;;;23.16;100.00;98238.56;5172767;27;19931;-56
2022/06/15 08:54:47;;;;;;;;;;;;;;;23.09;100.00;98213.72;5172681;27;19933;-55
2022/06/15 08:57:17;;;;;;;;;;;;;;;23.49;100.00;98252.50;5172292;27;19926;-55
2022/06/15 08:59:45;;;;;;;;;;;;;;;23.61;100.00;98273.13;5172408;27;19970;-55
2022/06/15 09:02:14;;;;;;;;;;;;;;;23.32;100.00;98268.13;5172177;27;19926;-54
2022/06/15 09:04:46;;;;;;;;;;;;;;;22.40;100.00;98226.50;5172068;27;19926;-54
2022/06/15 09:07:18;;;;;;;;;;;;;;;23.33;100.00;98270.47;5172177;27;19977;-54
2022/06/15 09:09:54;;;;;;;;;;;;;;;24.29;100.00;98245.31;5172271;27;19926;-55
2022/06/15 09:15:17;;;;;;;;;;;;;;;24.91;100.00;98358.53;5172248;27;20423;-56
2022/06/15 09:17:44;;;;;;;;;;;;;;;24.46;100.00;98348.50;5175252;27;19970;-55
2022/06/15 09:20:11;;;;;;;;;;;;;;;24.36;100.00;98328.19;5175725;27;19994;-56
2022/06/15 09:22:41;;;;;;;;;;;;;;;25.02;100.00;98353.13;5175941;27;19927;-57
2022/06/15 09:25:10;;;;;;;;;;;;;;;25.72;100.00;98383.38;5175747;27;19933;-56
2022/06/15 09:27:38;;;;;;;;;;;;;;;25.52;100.00;98431.78;5175543;27;19978;-57
2022/06/15 09:30:07;;;;;;;;;;;;;;;24.62;100.00;98379.69;5175699;27;19939;-57
2022/06/15 09:32:35;;;;;;;;;;;;;;;24.49;100.00;98403.56;5175629;27;19926;-55
2022/06/15 09:35:06;;;;;;;;;;;;;;;24.88;100.00;98407.94;5175133;27;19933;-57
2022/06/15 09:37:34;;;;;;;;;;;;;;;23.77;100.00;98367.13;5175498;27;20355;-55
2022/06/15 09:40:01;;;;;;;;;;;;;;;22.75;100.00;98307.88;5175385;27;19926;-57
2022/06/15 09:42:33;;;;;;;;;;;;;;;22.33;100.00;98255.50;5175259;27;19934;-55
2022/06/15 09:45:07;;;;;;;;;;;;;;;23.47;100.00;98296.97;5175437;27;19926;-54
2022/06/15 09:47:38;;;;;;;;;;;;;;;24.31;100.00;98351.25;5175216;27;19933;-54
2022/06/15 09:50:11;;;;;;;;;;;;;;;24.00;100.00;98346.78;5175314;27;20448;-56
2022/06/15 09:52:42;;;;;;;;;;;;;;;23.52;100.00;98239.59;5175231;27;19949;-56
2022/06/15 09:55:11;;;;;;;;;;;;;;;23.68;100.00;98293.16;5175456;27;20320;-54
2022/06/15 09:57:38;;;;;;;;;;;;;;;24.29;100.00;98334.13;5175303;27;19926;-55
2022/06/15 10:00:05;;;;;;;;;;;;;;;23.39;100.00;98287.38;5174967;27;19975;-55
2022/06/15 10:02:32;;;;;;;;;;;;;;;24.16;100.00;98337.97;5175214;27;19933;-55
2022/06/15 10:04:59;;;;;;;;;;;;;;;23.62;100.00;98289.44;5174923;27;20397;-55
2022/06/15 10:07:28;;;;;;;;;;;;;;;23.65;100.00;98305.28;5174969;27;20029;-57
2022/06/15 10:09:57;;;;;;;;;;;;;;;24.34;100.00;98308.28;5174634;27;19927;-55
2022/06/15 10:15:14;;;;;;;;;;;;;;;25.03;100.00;98365.13;5174719;27;19934;-55
2022/06/15 10:17:41;;;;;;;;;;;;;;;24.26;100.00;98399.50;5174991;27;20017;-55
2022/06/15 10:20:18;;;;;;;;;;;;;;;24.31;100.00;98401.66;5174979;27;19933;-56
2022/06/15 10:22:44;;;;;;;;;;;;;;;24.45;100.00;98341.34;5174480;27;19927;-55
2022/06/15 10:25:15;;;;;;;;;;;;;;;24.47;100.00;98300.41;5174626;27;19933;-55
2022/06/15 10:27:41;;;;;;;;;;;;;;;24.28;100.00;98377.41;5174049;27;19927;-55
2022/06/15 10:30:15;;;;;;;;;;;;;;;23.44;100.00;98323.88;5174898;27;19984;-55
2022/06/15 10:32:57;;;;;;;;;;;;;;;23.43;100.00;98263.59;5174302;27;19931;-54
2022/06/15 10:35:23;;;;;;;;;;;;;;;23.31;100.00;98303.72;5174706;27;19926;-54
2022/06/15 10:37:50;;;;;;;;;;;;;;;22.96;100.00;98250.28;5174578;27;19949;-54
2022/06/15 10:40:22;;;;;;;;;;;;;;;23.05;100.00;98215.91;5174752;27;19927;-53
2022/06/15 10:42:53;;;;;;;;;;;;;;;23.52;100.00;98214.44;5174274;27;19927;-54
2022/06/15 10:45:22;;;;;;;;;;;;;;;23.71;100.00;98297.03;5174093;27;20465;-55
2022/06/15 10:47:51;;;;;;;;;;;;;;;23.37;100.00;98318.63;5174569;27;19934;-55
2022/06/15 10:50:22;;;;;;;;;;;;;;;22.83;100.00;98289.56;5174270;27;20009;-54
2022/06/15 10:52:51;;;;;;;;;;;;;;;23.06;100.00;98179.13;5174391;27;19933;-54
2022/06/15 11:03:48;;;;;;;;;;;;;;;22.95;100.00;98277.44;5173940;27;19961;-54
2022/06/15 11:06:14;;;;;;;;;;;;;;;22.02;100.00;98266.78;5173954;27;19933;-54
2022/06/15 11:08:42;;;;;;;;;;;;;;;21.83;100.00;98222.13;5173840;27;19927;-53
2022/06/15 11:11:11;;;;;;;;;;;;;;;22.11;100.00;98173.91;5174079;27;19985;-54
2022/06/15 11:13:40;;;;;;;;;;;;;;;22.26;100.00;98174.88;5173873;27;20365;-55
2022/06/15 11:19:06;;;;;;;;;;;;;;;22.55;100.00;98197.44;5174105;27;20449;-54
2022/06/15 11:21:35;;;;;;;;;;;;;;;22.50;100.00;98208.47;5173707;27;19927;-54
2022/06/15 11:24:02;;;;;;;;;;;;;;;22.63;100.00;98231.41;5173975;27;19926;-55
2022/06/15 11:26:53;;;;;;;;;;;;;;;22.56;100.00;98209.41;5173660;27;19926;-54
2022/06/15 11:29:33;;;;;;;;;;;;;;;22.96;100.00;98306.19;5173585;27;19977;-54
2022/06/15 11:32:01;;;;;;;;;;;;;;;23.24;100.00;98287.28;5173593;27;20448;-54
2022/06/15 11:34:30;;;;;;;;;;;;;;;23.48;100.00;98267.75;5173551;27;20334;-55
2022/06/15 11:36:58;;;;;;;;;;;;;;;23.62;100.00;98266.28;5173378;27;20002;-54
2022/06/15 11:39:25;;;;;;;;;;;;;;;23.17;100.00;98201.72;5172510;27;20009;-54
2022/06/15 11:41:52;;;;;;;;;;;;;;;23.26;100.00;98273.63;5173627;27;19926;-55
2022/06/15 11:44:19;;;;;;;;;;;;;;;22.95;100.00;98265.50;5173298;27;20474;-55
2022/06/15 11:46:54;;;;;;;;;;;;;;;22.96;100.00;98287.38;5173362;27;20365;-54
2022/06/15 11:49:27;;;;;;;;;;;;;;;23.27;100.00;98274.41;5173217;27;19926;-54
2022/06/15 11:52:01;;;;;;;;;;;;;;;23.13;100.00;98214.34;5173206;27;19927;-54
2022/06/15 11:54:38;;;;;;;;;;;;;;;23.21;100.00;98257.47;5173223;27;19974;-54
2022/06/15 11:57:10;;;;;;;;;;;;;;;23.41;100.00;98336.00;5173078;27;19934;-55
2022/06/15 11:59:40;;;;;;;;;;;;;;;23.29;100.00;98322.22;5173040;27;20404;-54
2022/06/15 12:02:12;;;;;;;;;;;;;;;23.01;100.00;98285.97;5172999;27;19927;-56
2022/06/15 12:04:52;;;;;;;;;;;;;;;23.12;100.00;98293.84;5173206;27;19978;-54
2022/06/15 12:07:23;;;;;;;;;;;;;;;22.98;100.00;98237.38;5172982;27;19926;-54
2022/06/15 12:09:57;;;;;;;;;;;;;;;22.79;100.00;98314.09;5172883;27;19971;-54
2022/06/15 12:12:37;;;;;;;;;;;;;;;22.88;100.00;98252.59;5173023;27;19927;-55
2022/06/15 12:15:09;;;;;;;;;;;;;;;22.91;100.00;98327.13;5172872;27;20347;-54
2022/06/15 12:17:39;;;;;;;;;;;;;;;22.42;100.00;98246.34;5173461;27;19937;-56
2022/06/15 12:20:14;;;;;;;;;;;;;;;22.03;100.00;98262.78;5172632;27;20056;-54
2022/06/15 12:22:44;;;;;;;;;;;;;;;22.16;100.00;98254.25;5172872;27;19927;-54
2022/06/15 12:25:13;;;;;;;;;;;;;;;22.09;100.00;98208.66;5172623;27;19979;-54
2022/06/15 12:27:42;;;;;;;;;;;;;;;22.31;100.00;98241.22;5172606;27;19933;-54
2022/06/15 12:30:15;;;;;;;;;;;;;;;22.25;100.00;98252.25;5172527;27;19930;-54
2022/06/15 12:32:45;;;;;;;;;;;;;;;22.30;100.00;98312.28;5172522;27;19927;-54
2022/06/15 12:35:21;;;;;;;;;;;;;;;22.29;100.00;98299.53;5172504;27;19927;-54
2022/06/15 12:37:53;;;;;;;;;;;;;;;22.08;100.00;98307.56;5172296;27;19951;-54
2022/06/15 12:40:23;;;;;;;;;;;;;;;22.27;100.00;98262.94;5172893;27;19927;-55
2022/06/15 12:42:52;;;;;;;;;;;;;;;22.41;100.00;98256.72;5172250;27;19934;-53
2022/06/15 12:45:22;;;;;;;;;;;;;;;22.39;100.00;98186.63;5172318;27;19927;-55
2022/06/15 12:47:52;;;;;;;;;;;;;;;21.99;100.00;98299.22;5172453;27;19934;-52
2022/06/15 12:50:41;;;;;;;;;;;;;;;22.18;100.00;98274.88;5172358;27;20309;-53
2022/06/15 12:53:12;;;;;;;;;;;;;;;22.16;100.00;98284.97;5176321;27;19949;-54
2022/06/15 12:55:53;;;;;;;;;;;;;;;22.44;100.00;98247.41;5176123;27;19932;-53
2022/06/15 12:58:25;;;;;;;;;;;;;;;22.41;100.00;98259.53;5176128;27;19979;-53
2022/06/15 13:00:55;;;;;;;;;;;;;;;22.13;100.00;98219.66;5176032;27;19927;-55
2022/06/15 13:03:29;;;;;;;;;;;;;;;22.48;100.00;98264.78;5176018;27;19933;-54